createdAt,value
2018-09-02T00:00:40.129Z,0
2018-09-02T00:01:40.692Z,0
2018-09-02T00:02:41.248Z,0
2018-09-02T00:03:41.787Z,0
2018-09-02T00:04:42.345Z,0
2018-09-02T00:05:42.896Z,0
2018-09-02T00:06:43.450Z,0
2018-09-02T00:07:43.998Z,0
2018-09-02T00:08:44.548Z,0
2018-09-02T00:09:45.097Z,0
2018-09-02T00:10:45.638Z,0
2018-09-02T00:11:46.189Z,0
2018-09-02T00:12:46.741Z,0
2018-09-02T00:13:47.308Z,0
2018-09-02T00:14:47.843Z,0
2018-09-02T00:15:48.395Z,0
2018-09-02T00:16:48.948Z,0
2018-09-02T00:17:49.496Z,0
2018-09-02T00:18:50.046Z,0
2018-09-02T00:19:50.590Z,0
2018-09-02T00:20:51.139Z,0
2018-09-02T00:21:51.692Z,0
2018-09-02T00:22:52.244Z,0
2018-09-02T00:23:52.795Z,0
2018-09-02T00:24:53.343Z,0
2018-09-02T00:25:53.894Z,0
2018-09-02T00:26:54.446Z,0
2018-09-02T00:27:54.998Z,0
2018-09-02T00:28:55.548Z,0
2018-09-02T00:29:56.094Z,0
2018-09-02T00:30:56.644Z,0
2018-09-02T00:31:57.195Z,0
2018-09-02T00:32:57.806Z,0
2018-09-02T00:33:58.394Z,0
2018-09-02T00:34:58.851Z,0
2018-09-02T00:35:59.386Z,0
2018-09-02T00:36:59.938Z,0
2018-09-02T00:38:00.484Z,0
2018-09-02T00:39:01.031Z,0
2018-09-02T00:40:01.576Z,0
2018-09-02T00:41:02.125Z,0
2018-09-02T00:42:02.675Z,0
2018-09-02T00:43:03.226Z,0
2018-09-02T00:44:03.774Z,0
2018-09-02T00:45:04.326Z,0
2018-09-02T00:46:04.879Z,0
2018-09-02T00:47:05.429Z,0
2018-09-02T00:48:05.977Z,0
2018-09-02T00:49:06.526Z,0
2018-09-02T00:50:07.078Z,0
2018-09-02T00:51:07.621Z,0
2018-09-02T00:52:08.171Z,0
2018-09-02T00:53:08.723Z,0
2018-09-02T00:54:09.273Z,0
2018-09-02T00:55:09.825Z,0
2018-09-02T00:56:10.376Z,0
2018-09-02T00:57:10.919Z,0
2018-09-02T00:58:11.469Z,0
2018-09-02T00:59:12.024Z,0
2018-09-02T01:00:12.572Z,0
2018-09-02T01:01:13.126Z,0
2018-09-02T01:02:13.673Z,0
2018-09-02T01:03:14.220Z,0
2018-09-02T01:04:14.776Z,0
2018-09-02T01:05:15.316Z,0
2018-09-02T01:06:15.867Z,0
2018-09-02T01:07:16.417Z,0
2018-09-02T01:08:16.960Z,0
2018-09-02T01:09:17.511Z,0
2018-09-02T01:10:18.062Z,0
2018-09-02T01:11:18.615Z,0
2018-09-02T01:12:19.164Z,0
2018-09-02T01:13:19.710Z,0
2018-09-02T01:14:20.260Z,0
2018-09-02T01:15:20.813Z,0
2018-09-02T01:16:21.362Z,0
2018-09-02T01:17:21.910Z,0
2018-09-02T01:18:22.458Z,0
2018-09-02T01:19:23.011Z,0
2018-09-02T01:20:23.566Z,0
2018-09-02T01:21:24.113Z,0
2018-09-02T01:22:24.658Z,0
2018-09-02T01:23:25.201Z,0
2018-09-02T01:24:25.746Z,0
2018-09-02T01:25:26.296Z,0
2018-09-02T01:26:26.880Z,0
2018-09-02T01:27:27.400Z,0
2018-09-02T01:28:27.946Z,0
2018-09-02T01:29:28.489Z,0
2018-09-02T01:30:29.038Z,0
2018-09-02T01:31:29.581Z,0
2018-09-02T01:32:30.131Z,0
2018-09-02T01:33:30.684Z,0
2018-09-02T01:34:31.236Z,0
2018-09-02T01:35:31.784Z,0
2018-09-02T01:36:32.334Z,0
2018-09-02T01:37:32.885Z,0
2018-09-02T01:38:33.436Z,0
2018-09-02T01:39:33.984Z,0
2018-09-02T01:40:34.527Z,0
2018-09-02T01:41:35.076Z,0
2018-09-02T01:42:35.626Z,0
2018-09-02T01:43:36.175Z,0
2018-09-02T01:44:36.724Z,0
2018-09-02T01:45:37.268Z,0
2018-09-02T01:46:37.812Z,0
2018-09-02T01:47:38.361Z,0
2018-09-02T01:48:38.910Z,0
2018-09-02T01:49:39.462Z,0
2018-09-02T01:50:40.015Z,0
2018-09-02T01:51:40.566Z,0
2018-09-02T01:52:41.114Z,0
2018-09-02T01:53:41.656Z,0
2018-09-02T01:54:42.205Z,0
2018-09-02T01:55:42.755Z,0
2018-09-02T01:56:43.299Z,0
2018-09-02T01:57:43.851Z,0
2018-09-02T01:58:44.401Z,0
2018-09-02T01:59:44.943Z,0
2018-09-02T02:00:45.494Z,0
2018-09-02T02:01:46.045Z,0
2018-09-02T02:02:46.596Z,0
2018-09-02T02:03:47.145Z,0
2018-09-02T02:04:47.699Z,0
2018-09-02T02:05:48.245Z,0
2018-09-02T02:06:48.787Z,0
2018-09-02T02:07:49.330Z,0
2018-09-02T02:08:49.878Z,0
2018-09-02T02:09:50.430Z,0
2018-09-02T02:10:50.974Z,0
2018-09-02T02:11:51.523Z,0
2018-09-02T02:12:52.068Z,0
2018-09-02T02:13:52.618Z,0
2018-09-02T02:14:53.163Z,0
2018-09-02T02:15:53.711Z,0
2018-09-02T02:16:54.261Z,0
2018-09-02T02:17:54.803Z,0
2018-09-02T02:18:55.346Z,0
2018-09-02T02:19:55.891Z,0
2018-09-02T02:20:56.437Z,0
2018-09-02T02:21:56.984Z,0
2018-09-02T02:22:57.534Z,0
2018-09-02T02:23:58.081Z,0
2018-09-02T02:24:58.628Z,0
2018-09-02T02:25:59.176Z,0
2018-09-02T02:26:59.719Z,0
2018-09-02T02:28:00.273Z,0
2018-09-02T02:29:00.809Z,0
2018-09-02T02:30:01.354Z,0
2018-09-02T02:31:01.900Z,0
2018-09-02T02:32:02.444Z,0
2018-09-02T02:33:02.997Z,0
2018-09-02T02:34:03.546Z,0
2018-09-02T02:35:04.099Z,0
2018-09-02T02:36:04.650Z,0
2018-09-02T02:37:05.194Z,0
2018-09-02T02:38:05.736Z,0
2018-09-02T02:39:06.278Z,0
2018-09-02T02:40:06.827Z,0
2018-09-02T02:41:07.379Z,0
2018-09-02T02:42:07.925Z,0
2018-09-02T02:43:08.473Z,0
2018-09-02T02:44:09.013Z,0
2018-09-02T02:45:09.557Z,0
2018-09-02T02:46:10.103Z,0
2018-09-02T02:47:10.650Z,0
2018-09-02T02:48:11.202Z,0
2018-09-02T02:49:11.756Z,0
2018-09-02T02:50:12.302Z,0
2018-09-02T02:51:12.851Z,0
2018-09-02T02:52:13.401Z,0
2018-09-02T02:53:13.953Z,0
2018-09-02T02:54:14.502Z,0
2018-09-02T02:55:15.046Z,0
2018-09-02T02:56:15.593Z,0
2018-09-02T02:57:16.143Z,0
2018-09-02T02:58:16.700Z,0
2018-09-02T02:59:17.243Z,0
2018-09-02T03:00:17.797Z,0
2018-09-02T03:01:18.343Z,0
2018-09-02T03:02:18.889Z,0
2018-09-02T03:03:19.438Z,0
2018-09-02T03:04:19.980Z,0
2018-09-02T03:05:20.529Z,0
2018-09-02T03:06:21.084Z,0
2018-09-02T03:07:21.636Z,0
2018-09-02T03:08:22.183Z,0
2018-09-02T03:09:22.732Z,0
2018-09-02T03:10:23.275Z,0
2018-09-02T03:11:23.825Z,0
2018-09-02T03:12:24.373Z,0
2018-09-02T03:13:24.924Z,0
2018-09-02T03:14:25.474Z,0
2018-09-02T03:15:26.016Z,0
2018-09-02T03:16:26.558Z,0
2018-09-02T03:17:27.099Z,0
2018-09-02T03:18:27.640Z,0
2018-09-02T03:19:28.185Z,0
2018-09-02T03:20:28.731Z,0
2018-09-02T03:21:29.283Z,0
2018-09-02T03:22:29.831Z,0
2018-09-02T03:23:30.375Z,0
2018-09-02T03:24:30.927Z,0
2018-09-02T03:25:31.467Z,0
2018-09-02T03:26:32.015Z,0
2018-09-02T03:27:32.558Z,0
2018-09-02T03:28:33.099Z,0
2018-09-02T03:29:33.640Z,0
2018-09-02T03:30:34.194Z,0
2018-09-02T03:31:34.737Z,0
2018-09-02T03:32:35.286Z,0
2018-09-02T03:33:35.828Z,0
2018-09-02T03:34:36.368Z,0
2018-09-02T03:35:36.916Z,0
2018-09-02T03:36:37.465Z,0
2018-09-02T03:37:38.006Z,0
2018-09-02T03:38:38.555Z,0
2018-09-02T03:39:39.102Z,0
2018-09-02T03:40:39.652Z,0
2018-09-02T03:41:40.202Z,0
2018-09-02T03:42:40.751Z,0
2018-09-02T03:43:41.300Z,0
2018-09-02T03:44:41.840Z,0
2018-09-02T03:45:42.381Z,0
2018-09-02T03:46:42.933Z,0
2018-09-02T03:47:43.482Z,0
2018-09-02T03:48:44.028Z,0
2018-09-02T03:49:44.577Z,0
2018-09-02T03:50:45.130Z,0
2018-09-02T03:51:45.675Z,0
2018-09-02T03:52:46.229Z,0
2018-09-02T03:53:46.777Z,0
2018-09-02T03:54:47.317Z,0
2018-09-02T03:55:47.868Z,0
2018-09-02T03:56:48.418Z,0
2018-09-02T03:57:48.958Z,0
2018-09-02T03:58:49.504Z,0
2018-09-02T03:59:50.053Z,0
2018-09-02T04:00:50.601Z,0
2018-09-02T04:01:51.149Z,0
2018-09-02T04:02:51.699Z,0
2018-09-02T04:03:52.247Z,0
2018-09-02T04:04:52.799Z,0
2018-09-02T04:05:53.345Z,0
2018-09-02T04:06:53.898Z,0
2018-09-02T04:07:54.443Z,0
2018-09-02T04:08:54.989Z,0
2018-09-02T04:09:55.526Z,0
2018-09-02T04:10:56.077Z,0
2018-09-02T04:11:56.624Z,0
2018-09-02T04:12:57.166Z,0
2018-09-02T04:13:57.713Z,0
2018-09-02T04:14:58.264Z,0
2018-09-02T04:15:58.803Z,4
2018-09-02T04:16:59.352Z,4
2018-09-02T04:17:59.894Z,0
2018-09-02T04:19:00.445Z,4
2018-09-02T04:20:01.062Z,4
2018-09-02T04:21:01.532Z,8
2018-09-02T04:22:02.080Z,4
2018-09-02T04:23:02.627Z,8
2018-09-02T04:24:03.175Z,8
2018-09-02T04:25:03.719Z,12
2018-09-02T04:26:04.271Z,12
2018-09-02T04:27:04.817Z,16
2018-09-02T04:28:05.357Z,20
2018-09-02T04:29:05.908Z,24
2018-09-02T04:30:06.487Z,28
2018-09-02T04:31:07.007Z,32
2018-09-02T04:32:07.617Z,40
2018-09-02T04:33:08.105Z,48
2018-09-02T04:34:08.661Z,56
2018-09-02T04:35:09.204Z,68
2018-09-02T04:36:09.751Z,80
2018-09-02T04:37:10.294Z,88
2018-09-02T04:38:10.846Z,104
2018-09-02T04:39:11.397Z,120
2018-09-02T04:40:11.948Z,140
2018-09-02T04:41:12.491Z,160
2018-09-02T04:42:13.043Z,180
2018-09-02T04:43:13.594Z,200
2018-09-02T04:44:14.136Z,224
2018-09-02T04:45:14.750Z,252
2018-09-02T04:46:15.229Z,276
2018-09-02T04:47:15.774Z,304
2018-09-02T04:48:16.325Z,332
2018-09-02T04:49:16.878Z,368
2018-09-02T04:50:17.431Z,400
2018-09-02T04:51:17.983Z,436
2018-09-02T04:52:18.535Z,472
2018-09-02T04:53:19.083Z,512
2018-09-02T04:54:19.734Z,552
2018-09-02T04:55:20.177Z,596
2018-09-02T04:56:20.730Z,644
2018-09-02T04:57:21.282Z,692
2018-09-02T04:58:21.830Z,744
2018-09-02T04:59:22.376Z,796
2018-09-02T05:00:22.939Z,852
2018-09-02T05:01:23.464Z,912
2018-09-02T05:02:24.020Z,968
2018-09-02T05:03:24.570Z,1024
2018-09-02T05:04:25.124Z,1084
2018-09-02T05:05:25.674Z,1144
2018-09-02T05:06:26.220Z,1204
2018-09-02T05:07:26.773Z,1272
2018-09-02T05:08:27.320Z,1336
2018-09-02T05:09:27.872Z,1400
2018-09-02T05:10:28.424Z,1468
2018-09-02T05:11:28.976Z,1536
2018-09-02T05:12:29.529Z,1604
2018-09-02T05:13:30.082Z,1672
2018-09-02T05:14:30.638Z,1740
2018-09-02T05:15:31.182Z,1812
2018-09-02T05:16:31.740Z,1884
2018-09-02T05:17:32.293Z,1960
2018-09-02T05:18:32.844Z,2036
2018-09-02T05:19:33.397Z,2116
2018-09-02T05:20:33.944Z,2188
2018-09-02T05:21:34.495Z,2260
2018-09-02T05:22:35.051Z,2340
2018-09-02T05:23:35.604Z,2428
2018-09-02T05:24:36.148Z,2508
2018-09-02T05:25:36.705Z,2604
2018-09-02T05:26:37.261Z,2684
2018-09-02T05:27:37.813Z,2756
2018-09-02T05:28:38.365Z,2872
2018-09-02T05:29:38.923Z,3084
2018-09-02T05:30:39.469Z,3324
2018-09-02T05:31:40.017Z,3508
2018-09-02T05:32:40.573Z,3648
2018-09-02T05:33:41.121Z,3748
2018-09-02T05:34:41.673Z,3700
2018-09-02T05:35:42.232Z,3636
2018-09-02T05:36:42.793Z,3868
2018-09-02T05:37:43.348Z,4244
2018-09-02T05:38:43.905Z,4472
2018-09-02T05:39:44.456Z,4552
2018-09-02T05:40:45.014Z,4568
2018-09-02T05:41:45.574Z,4592
2018-09-02T05:42:46.124Z,4828
2018-09-02T05:43:46.683Z,5236
2018-09-02T05:44:47.243Z,5448
2018-09-02T05:45:47.800Z,5236
2018-09-02T05:46:48.359Z,5236
2018-09-02T05:47:48.922Z,5708
2018-09-02T05:48:49.470Z,6220
2018-09-02T05:49:50.029Z,6460
2018-09-02T05:50:50.590Z,6692
2018-09-02T05:51:51.143Z,6916
2018-09-02T05:52:51.701Z,7156
2018-09-02T05:53:52.254Z,7360
2018-09-02T05:54:52.815Z,7604
2018-09-02T05:55:53.377Z,7864
2018-09-02T05:56:53.928Z,8156
2018-09-02T05:57:54.488Z,8448
2018-09-02T05:58:55.055Z,8676
2018-09-02T05:59:55.613Z,8852
2018-09-02T06:00:56.178Z,8924
2018-09-02T06:01:56.737Z,9056
2018-09-02T06:02:57.298Z,9164
2018-09-02T06:03:57.859Z,9264
2018-09-02T06:04:58.477Z,9352
2018-09-02T06:05:58.986Z,9416
2018-09-02T06:06:59.548Z,8816
2018-09-02T06:08:00.112Z,7640
2018-09-02T06:09:00.671Z,7640
2018-09-02T06:10:01.233Z,8032
2018-09-02T06:11:01.796Z,7360
2018-09-02T06:12:02.354Z,8072
2018-09-02T06:13:02.912Z,9820
2018-09-02T06:14:03.577Z,10612
2018-09-02T06:15:04.032Z,10760
2018-09-02T06:16:04.588Z,10936
2018-09-02T06:17:05.153Z,11128
2018-09-02T06:18:05.714Z,11332
2018-09-02T06:19:06.271Z,11508
2018-09-02T06:20:06.830Z,10524
2018-09-02T06:21:07.390Z,8636
2018-09-02T06:22:07.953Z,8644
2018-09-02T06:23:08.515Z,10960
2018-09-02T06:24:09.069Z,12392
2018-09-02T06:25:09.632Z,12588
2018-09-02T06:26:10.190Z,12832
2018-09-02T06:27:10.755Z,13052
2018-09-02T06:28:11.310Z,13264
2018-09-02T06:29:11.870Z,13468
2018-09-02T06:30:12.489Z,13644
2018-09-02T06:31:12.996Z,13892
2018-09-02T06:32:13.561Z,14096
2018-09-02T06:33:14.125Z,14172
2018-09-02T06:34:14.691Z,14348
2018-09-02T06:35:15.260Z,14568
2018-09-02T06:36:15.845Z,14776
2018-09-02T06:37:16.393Z,14876
2018-09-02T06:38:16.950Z,15032
2018-09-02T06:39:17.565Z,15172
2018-09-02T06:40:18.084Z,15520
2018-09-02T06:41:18.655Z,15684
2018-09-02T06:42:19.220Z,15884
2018-09-02T06:43:19.786Z,16100
2018-09-02T06:44:20.359Z,16404
2018-09-02T06:45:20.924Z,16732
2018-09-02T06:46:21.490Z,16968
2018-09-02T06:47:22.054Z,17172
2018-09-02T06:48:22.621Z,17504
2018-09-02T06:49:23.181Z,17632
2018-09-02T06:50:23.751Z,17728
2018-09-02T06:51:24.309Z,17952
2018-09-02T06:52:24.881Z,18208
2018-09-02T06:53:25.447Z,18400
2018-09-02T06:54:26.010Z,18752
2018-09-02T06:55:26.576Z,19040
2018-09-02T06:56:27.147Z,19296
2018-09-02T06:57:27.707Z,19488
2018-09-02T06:58:28.286Z,19584
2018-09-02T06:59:28.844Z,19744
2018-09-02T07:00:29.405Z,19904
2018-09-02T07:01:29.974Z,20256
2018-09-02T07:02:30.537Z,20704
2018-09-02T07:03:31.102Z,21088
2018-09-02T07:04:31.669Z,21344
2018-09-02T07:05:32.239Z,21568
2018-09-02T07:06:32.871Z,21728
2018-09-02T07:07:33.381Z,22016
2018-09-02T07:08:33.949Z,22336
2018-09-02T07:09:34.542Z,22688
2018-09-02T07:10:35.093Z,23168
2018-09-02T07:11:35.662Z,23488
2018-09-02T07:12:36.233Z,23584
2018-09-02T07:13:36.802Z,23648
2018-09-02T07:14:37.367Z,24064
2018-09-02T07:15:37.935Z,24384
2018-09-02T07:16:38.507Z,24640
2018-09-02T07:17:39.077Z,25088
2018-09-02T07:18:39.646Z,25280
2018-09-02T07:19:40.218Z,25536
2018-09-02T07:20:40.789Z,25760
2018-09-02T07:21:41.360Z,26048
2018-09-02T07:22:41.923Z,26048
2018-09-02T07:23:42.493Z,26368
2018-09-02T07:24:43.064Z,26560
2018-09-02T07:25:43.633Z,26656
2018-09-02T07:26:44.202Z,26976
2018-09-02T07:27:44.774Z,27168
2018-09-02T07:28:45.345Z,27232
2018-09-02T07:29:45.920Z,27648
2018-09-02T07:30:46.494Z,27808
2018-09-02T07:31:47.067Z,28032
2018-09-02T07:32:47.627Z,28000
2018-09-02T07:33:48.192Z,28320
2018-09-02T07:34:48.755Z,28480
2018-09-02T07:35:49.321Z,28928
2018-09-02T07:36:49.891Z,29184
2018-09-02T07:37:50.456Z,29472
2018-09-02T07:38:51.028Z,29888
2018-09-02T07:39:51.597Z,30272
2018-09-02T07:40:52.165Z,30560
2018-09-02T07:41:52.736Z,31136
2018-09-02T07:42:53.304Z,31616
2018-09-02T07:43:53.982Z,31744
2018-09-02T07:44:54.442Z,31904
2018-09-02T07:45:55.012Z,32480
2018-09-02T07:46:55.585Z,32736
2018-09-02T07:47:56.156Z,32960
2018-09-02T07:48:56.725Z,33248
2018-09-02T07:49:57.294Z,33440
2018-09-02T07:50:57.860Z,33280
2018-09-02T07:51:58.432Z,33472
2018-09-02T07:52:59.003Z,33664
2018-09-02T07:53:59.573Z,34432
2018-09-02T07:55:00.143Z,35360
2018-09-02T07:56:00.713Z,35232
2018-09-02T07:57:01.279Z,35520
2018-09-02T07:58:01.852Z,35616
2018-09-02T07:59:02.412Z,35616
2018-09-02T08:00:02.978Z,35936
2018-09-02T08:01:03.550Z,36544
2018-09-02T08:02:04.121Z,36704
2018-09-02T08:03:04.692Z,36544
2018-09-02T08:04:05.265Z,36832
2018-09-02T08:05:05.837Z,37504
2018-09-02T08:06:06.411Z,38432
2018-09-02T08:07:06.984Z,39168
2018-09-02T08:08:07.558Z,39360
2018-09-02T08:09:08.129Z,39840
2018-09-02T08:10:08.698Z,40288
2018-09-02T08:11:09.262Z,40512
2018-09-02T08:12:09.838Z,41280
2018-09-02T08:13:10.408Z,41376
2018-09-02T08:14:10.982Z,41664
2018-09-02T08:15:11.552Z,42144
2018-09-02T08:16:12.127Z,42336
2018-09-02T08:17:12.694Z,42720
2018-09-02T08:18:13.267Z,42464
2018-09-02T08:19:13.840Z,42432
2018-09-02T08:20:14.413Z,42752
2018-09-02T08:21:14.985Z,42944
2018-09-02T08:22:15.560Z,43296
2018-09-02T08:23:16.139Z,43872
2018-09-02T08:24:16.704Z,37408
2018-09-02T08:25:17.277Z,44960
2018-09-02T08:26:17.857Z,45920
2018-09-02T08:27:18.423Z,47616
2018-09-02T08:28:18.998Z,47680
2018-09-02T08:29:19.562Z,32384
2018-09-02T08:30:20.128Z,38432
2018-09-02T08:31:20.703Z,42144
2018-09-02T08:32:21.265Z,25856
2018-09-02T08:33:21.829Z,31840
2018-09-02T08:34:22.402Z,42720
2018-09-02T08:35:22.975Z,53376
2018-09-02T08:36:23.550Z,55872
2018-09-02T08:37:24.119Z,55488
2018-09-02T08:38:24.684Z,56448
2018-09-02T08:39:25.261Z,55744
2018-09-02T08:40:25.835Z,53696
2018-09-02T08:41:26.404Z,51872
2018-09-02T08:42:26.981Z,50560
2018-09-02T08:43:27.552Z,50176
2018-09-02T08:44:28.126Z,50784
2018-09-02T08:45:28.696Z,51264
2018-09-02T08:46:29.269Z,51872
2018-09-02T08:47:29.843Z,51392
2018-09-02T08:48:30.415Z,51072
2018-09-02T08:49:30.981Z,50912
2018-09-02T08:50:31.634Z,51264
2018-09-02T08:51:32.127Z,51904
2018-09-02T08:52:32.688Z,52576
2018-09-02T08:53:33.260Z,52288
2018-09-02T08:54:33.833Z,51968
2018-09-02T08:55:34.405Z,51520
2018-09-02T08:56:34.979Z,51584
2018-09-02T08:57:35.553Z,52000
2018-09-02T08:58:36.131Z,52288
2018-09-02T08:59:36.702Z,52832
2018-09-02T09:00:37.277Z,52992
2018-09-02T09:01:37.888Z,53696
2018-09-02T09:02:38.422Z,54272
2018-09-02T09:03:38.998Z,54240
2018-09-02T09:04:39.564Z,53536
2018-09-02T09:05:40.137Z,52416
2018-09-02T09:06:40.710Z,53024
2018-09-02T09:07:41.422Z,53920
2018-09-02T09:08:41.925Z,55328
2018-09-02T09:09:42.416Z,55808
2018-09-02T09:10:42.990Z,54752
2018-09-02T09:11:43.563Z,54080
2018-09-02T09:12:44.136Z,53344
2018-09-02T09:13:44.712Z,53312
2018-09-02T09:14:45.283Z,53760
2018-09-02T09:15:45.848Z,54688
2018-09-02T09:16:46.476Z,56096
2018-09-02T09:17:46.990Z,56544
2018-09-02T09:18:47.564Z,55648
2018-09-02T09:19:48.135Z,53760
2018-09-02T09:20:48.709Z,54144
2018-09-02T09:21:49.276Z,55328
2018-09-02T09:22:49.905Z,56448
2018-09-02T09:23:50.416Z,56544
2018-09-02T09:24:51.025Z,56064
2018-09-02T09:25:51.560Z,55936
2018-09-02T09:26:52.127Z,57056
2018-09-02T09:27:52.691Z,57824
2018-09-02T09:28:53.264Z,57696
2018-09-02T09:29:53.836Z,57504
2018-09-02T09:30:54.408Z,57760
2018-09-02T09:31:54.981Z,57472
2018-09-02T09:32:55.602Z,58496
2018-09-02T09:33:56.175Z,59712
2018-09-02T09:34:56.739Z,60512
2018-09-02T09:35:57.309Z,60704
2018-09-02T09:36:57.883Z,60224
2018-09-02T09:37:58.451Z,60192
2018-09-02T09:38:59.025Z,61600
2018-09-02T09:39:59.589Z,61824
2018-09-02T09:41:00.153Z,61504
2018-09-02T09:42:00.726Z,62400
2018-09-02T09:43:01.292Z,63264
2018-09-02T09:44:01.859Z,63904
2018-09-02T09:45:02.430Z,63872
2018-09-02T09:46:03.031Z,65312
2018-09-02T09:47:03.571Z,65088
2018-09-02T09:48:04.143Z,65856
2018-09-02T09:49:04.707Z,65216
2018-09-02T09:50:05.280Z,65696
2018-09-02T09:51:05.852Z,66912
2018-09-02T09:52:06.439Z,68160
2018-09-02T09:53:06.991Z,66624
2018-09-02T09:54:07.556Z,66240
2018-09-02T09:55:08.129Z,65344
2018-09-02T09:56:08.700Z,66208
2018-09-02T09:57:09.266Z,67936
2018-09-02T09:58:09.840Z,68544
2018-09-02T09:59:10.413Z,68672
2018-09-02T10:00:10.985Z,69280
2018-09-02T10:01:11.557Z,68608
2018-09-02T10:02:12.129Z,69376
2018-09-02T10:03:12.705Z,70880
2018-09-02T10:04:13.277Z,71200
2018-09-02T10:05:13.849Z,71424
2018-09-02T10:06:14.421Z,72096
2018-09-02T10:07:14.995Z,71808
2018-09-02T10:08:15.597Z,71456
2018-09-02T10:09:16.131Z,71552
2018-09-02T10:10:16.752Z,70720
2018-09-02T10:11:17.265Z,69600
2018-09-02T10:12:17.843Z,70976
2018-09-02T10:13:18.410Z,72800
2018-09-02T10:14:18.988Z,73600
2018-09-02T10:15:19.559Z,72832
2018-09-02T10:16:20.134Z,70784
2018-09-02T10:18:21.270Z,72064
2018-09-02T10:19:21.837Z,74400
2018-09-02T10:20:22.408Z,75264
2018-09-02T10:21:22.983Z,76608
2018-09-02T10:22:23.555Z,77632
2018-09-02T10:23:24.134Z,76640
2018-09-02T10:24:24.701Z,76384
2018-09-02T10:25:25.267Z,77568
2018-09-02T10:26:25.836Z,77312
2018-09-02T10:27:26.482Z,78944
2018-09-02T10:28:26.977Z,79552
2018-09-02T10:29:27.543Z,79168
2018-09-02T10:30:28.115Z,79232
2018-09-02T10:31:28.687Z,79232
2018-09-02T10:32:29.260Z,76992
2018-09-02T10:33:29.892Z,74848
2018-09-02T10:34:30.400Z,74496
2018-09-02T10:35:30.972Z,77376
2018-09-02T10:36:31.541Z,79712
2018-09-02T10:37:32.111Z,81440
2018-09-02T10:38:32.683Z,80384
2018-09-02T10:39:33.255Z,76384
2018-09-02T10:40:33.828Z,73344
2018-09-02T10:41:34.607Z,70752
2018-09-02T10:42:34.968Z,70880
2018-09-02T10:43:35.534Z,75456
2018-09-02T10:44:36.101Z,77280
2018-09-02T10:45:36.674Z,77088
2018-09-02T10:46:37.248Z,75968
2018-09-02T10:47:37.819Z,74496
2018-09-02T10:48:38.393Z,72160
2018-09-02T10:49:38.985Z,71648
2018-09-02T10:50:39.535Z,56160
2018-09-02T10:51:40.106Z,68992
2018-09-02T10:52:40.671Z,71200
2018-09-02T10:53:41.245Z,71904
2018-09-02T10:54:41.817Z,75296
2018-09-02T10:55:42.390Z,76064
2018-09-02T10:56:42.963Z,55488
2018-09-02T10:57:43.527Z,75424
2018-09-02T10:58:44.101Z,72256
2018-09-02T10:59:44.749Z,68096
2018-09-02T11:00:45.247Z,77600
2018-09-02T11:01:45.806Z,54368
2018-09-02T11:02:46.370Z,27840
2018-09-02T11:03:46.945Z,47296
2018-09-02T11:04:47.519Z,67264
2018-09-02T11:05:48.085Z,23104
2018-09-02T11:06:48.655Z,22656
2018-09-02T11:07:49.346Z,24896
2018-09-02T11:08:49.861Z,78272
2018-09-02T11:09:50.356Z,25024
2018-09-02T11:10:50.925Z,52480
2018-09-02T11:11:51.494Z,68192
2018-09-02T11:12:52.115Z,73728
2018-09-02T11:13:52.806Z,73376
2018-09-02T11:14:53.207Z,73440
2018-09-02T11:15:53.778Z,73184
2018-09-02T11:16:54.349Z,71040
2018-09-02T11:17:54.919Z,71168
2018-09-02T11:18:55.508Z,72128
2018-09-02T11:19:56.068Z,74848
2018-09-02T11:20:56.639Z,76224
2018-09-02T11:21:57.215Z,77024
2018-09-02T11:22:57.775Z,75808
2018-09-02T11:23:58.348Z,76000
2018-09-02T11:24:58.920Z,73472
2018-09-02T11:25:59.493Z,74496
2018-09-02T11:27:00.066Z,78880
2018-09-02T11:28:00.631Z,33856
2018-09-02T11:29:01.203Z,63232
2018-09-02T11:30:01.776Z,30560
2018-09-02T11:31:02.353Z,28672
2018-09-02T11:32:02.922Z,27616
2018-09-02T11:33:03.489Z,27040
2018-09-02T11:34:04.100Z,27040
2018-09-02T11:35:04.627Z,28096
2018-09-02T11:36:05.208Z,30112
2018-09-02T11:37:05.779Z,73120
2018-09-02T11:38:06.354Z,80768
2018-09-02T11:39:06.915Z,35744
2018-09-02T11:40:07.485Z,28512
2018-09-02T11:41:08.056Z,25792
2018-09-02T11:42:08.625Z,75040
2018-09-02T11:43:09.196Z,77952
2018-09-02T11:44:09.767Z,82656
2018-09-02T11:45:10.378Z,43776
2018-09-02T11:46:10.909Z,83008
2018-09-02T11:47:11.482Z,83392
2018-09-02T11:48:12.043Z,82432
2018-09-02T11:49:12.612Z,83008
2018-09-02T11:50:13.183Z,80320
2018-09-02T11:51:13.752Z,78464
2018-09-02T11:52:14.317Z,88448
2018-09-02T11:53:14.885Z,79360
2018-09-02T11:54:15.452Z,30304
2018-09-02T11:55:16.026Z,27680
2018-09-02T11:56:16.601Z,27424
2018-09-02T11:57:17.173Z,27488
2018-09-02T11:58:17.745Z,28128
2018-09-02T11:59:18.307Z,29376
2018-09-02T12:00:18.871Z,58368
2018-09-02T12:01:19.444Z,79872
2018-09-02T12:02:20.014Z,80352
2018-09-02T12:03:20.590Z,79264
2018-09-02T12:04:21.160Z,80672
2018-09-02T12:05:21.734Z,81536
2018-09-02T12:06:22.305Z,78432
2018-09-02T12:07:22.875Z,78464
2018-09-02T12:08:23.470Z,77760
2018-09-02T12:09:24.022Z,75296
2018-09-02T12:10:24.605Z,75328
2018-09-02T12:11:25.159Z,74592
2018-09-02T12:12:25.730Z,73984
2018-09-02T12:13:26.302Z,73856
2018-09-02T12:14:26.877Z,74304
2018-09-02T12:15:27.449Z,75040
2018-09-02T12:16:28.013Z,72992
2018-09-02T12:17:28.590Z,78336
2018-09-02T12:18:29.157Z,77344
2018-09-02T12:19:29.729Z,28288
2018-09-02T12:20:30.300Z,52992
2018-09-02T12:21:30.878Z,42880
2018-09-02T12:22:31.445Z,32448
2018-09-02T12:23:32.019Z,39136
2018-09-02T12:24:32.591Z,34432
2018-09-02T12:25:33.174Z,28544
2018-09-02T12:26:33.795Z,26560
2018-09-02T12:27:34.372Z,27808
2018-09-02T12:28:34.969Z,75616
2018-09-02T12:29:35.512Z,71168
2018-09-02T12:30:36.076Z,74528
2018-09-02T12:31:36.763Z,54496
2018-09-02T12:32:37.217Z,32416
2018-09-02T12:33:37.793Z,25984
2018-09-02T12:34:38.361Z,35008
2018-09-02T12:35:38.930Z,76960
2018-09-02T12:36:39.502Z,81120
2018-09-02T12:37:40.071Z,58112
2018-09-02T12:38:40.639Z,83168
2018-09-02T12:39:41.258Z,82784
2018-09-02T12:40:41.779Z,84128
2018-09-02T12:41:42.350Z,36768
2018-09-02T12:42:42.914Z,31904
2018-09-02T12:43:43.482Z,28704
2018-09-02T12:44:44.053Z,27072
2018-09-02T12:45:44.625Z,26656
2018-09-02T12:46:45.193Z,28032
2018-09-02T12:47:45.836Z,29120
2018-09-02T12:48:46.331Z,28160
2018-09-02T12:49:46.901Z,26784
2018-09-02T12:50:47.470Z,25472
2018-09-02T12:51:48.040Z,24448
2018-09-02T12:52:48.610Z,23904
2018-09-02T12:53:49.183Z,24064
2018-09-02T12:54:49.753Z,25568
2018-09-02T12:55:50.540Z,26912
2018-09-02T12:56:50.879Z,28864
2018-09-02T12:57:51.451Z,50912
2018-09-02T12:58:52.145Z,80832
2018-09-02T12:59:52.585Z,79744
2018-09-02T13:00:53.150Z,67616
2018-09-02T13:01:53.718Z,46016
2018-09-02T13:02:54.281Z,35776
2018-09-02T13:03:54.852Z,29088
2018-09-02T13:04:55.420Z,27168
2018-09-02T13:05:55.989Z,26720
2018-09-02T13:06:56.558Z,26624
2018-09-02T13:07:57.120Z,26272
2018-09-02T13:08:57.692Z,25664
2018-09-02T13:09:58.263Z,25088
2018-09-02T13:10:58.874Z,24512
2018-09-02T13:12:00.394Z,23744
2018-09-02T13:13:00.953Z,23360
2018-09-02T13:14:01.521Z,22720
2018-09-02T13:15:02.091Z,22112
2018-09-02T13:16:02.660Z,21280
2018-09-02T13:17:03.230Z,20608
2018-09-02T13:18:03.791Z,20576
2018-09-02T13:19:04.465Z,20736
2018-09-02T13:20:04.928Z,21184
2018-09-02T13:21:05.491Z,22432
2018-09-02T13:22:06.060Z,23616
2018-09-02T13:23:06.622Z,24160
2018-09-02T13:24:07.367Z,24224
2018-09-02T13:25:07.758Z,23424
2018-09-02T13:26:08.328Z,21984
2018-09-02T13:27:08.897Z,20128
2018-09-02T13:28:09.466Z,19232
2018-09-02T13:29:10.031Z,19360
2018-09-02T13:30:10.599Z,20320
2018-09-02T13:31:11.168Z,22336
2018-09-02T13:32:11.735Z,23168
2018-09-02T13:33:12.302Z,23424
2018-09-02T13:34:12.872Z,24480
2018-09-02T13:35:13.438Z,25888
2018-09-02T13:36:13.998Z,27872
2018-09-02T13:37:14.566Z,28256
2018-09-02T13:38:15.134Z,28320
2018-09-02T13:39:15.705Z,28960
2018-09-02T13:40:16.299Z,29504